Accueil
METAR-TAF:

METAR-TAF

Aéroports :

Aéroport de Chambéry-Savoie

Chambery / Aix-Les-Bains, France

latitude: 45-39N, longitude: 005-53E, altitude: 235 m

Observation

Le bulletin a été fait il y a 16 minutes, à 15:30 UTC
Vent 5 kt de nord/nord-ouest, variant entre ouest/nord-ouest et nord
Température 24°C
Humidité 69%
Pression 1016 hPa
Visibilité 10 km ou plus
Quelques nuages à une hauteur de 5400 ft

METAR: LFLB 281530Z AUTO 33005KT 300V360 9999 FEW054 24/18 Q1016 NOSIG

Heure: 17:46 (15:46 UTC)

Prévision

Le bulletin a été fait il y a 1 heure et 46 minutes, à 14:00 UTC
Prévision valable du 28 à 15 UTC au 29 à 15 UTC
Vent 6 kt de nord
Visibilité 10 km ou plus
Nuages épars à une hauteur de 5500 ft
Probabilité 30% :
Temporairement
du 29 à 04 UTC au 29 à 07 UTC
Visibilité: 3000 m
Brouillard mince

TAF: LFLB 281400Z 2815/2915 36006KT 9999 SCT055 PROB30 TEMPO 2904/2907 3000 MIFG

Observations et prévisions météorologiques de plus de 4000 aéroports (messages METAR et TAF).

Les stations disponibles sont représentées par des disques jaunes et rouges sur la carte.

Passer la souris dessus pour voir le nom de la station.

Cliquer dessus pour voir les observations et prévisions météorologiques.

Pour changer de carte: cliquez sur les boutons verts avec une croix noire pour zoomer, sur le bouton vert avec un tiret pour effectuer un zoom arrière, ou sur les flèches vertes pour les cartes adjacentes.


METAR-TAF: